Time;durP1;ratioP1;P1;durP2;ratioP2;P2;SDS_P1;SDS_P2;PMS_P1;PMS_P2;Temp;Humidity;BMP_temperature;BMP_pressure;BME280_temperature;BME280_humidity;BME280_pressure;Samples;Min_cycle;Max_cycle;Signal;HPM_P1;HPM_P2
2022/07/13 00:01:30;;;;;;;;;;;11.10;75.40;;;;;;5094426;28;19908;-80
2022/07/13 00:03:57;;;;;;;;;;;11.10;75.80;;;;;;5094124;28;19943;-81
2022/07/13 00:06:24;;;;;;;;;;;11.20;76.30;;;;;;5094457;28;19916;-80
2022/07/13 00:08:51;;;;;;;;;;;11.20;75.40;;;;;;5094215;28;20347;-81
2022/07/13 00:11:17;;;;;;;;;;;11.20;75.70;;;;;;5094157;28;19915;-80
2022/07/13 00:13:44;;;;;;;;;;;11.20;75.10;;;;;;5093879;28;19908;-81
2022/07/13 00:16:10;;;;;;;;;;;11.20;75.30;;;;;;5093924;28;20384;-81
2022/07/13 00:18:37;;;;;;;;;;;11.30;75.20;;;;;;5093935;28;20387;-81
2022/07/13 00:21:03;;;;;;;;;;;11.20;75.60;;;;;;5093848;28;19999;-81
2022/07/13 00:23:30;;;;;;;;;;;11.30;76.30;;;;;;5094083;28;19912;-80
2022/07/13 00:25:56;;;;;;;;;;;11.30;75.80;;;;;;5094187;28;20373;-80
2022/07/13 00:28:23;;;;;;;;;;;11.40;75.60;;;;;;5094352;28;20311;-80
2022/07/13 00:30:49;;;;;;;;;;;11.30;75.50;;;;;;5090976;28;20359;-80
2022/07/13 00:33:16;;;;;;;;;;;11.40;75.80;;;;;;5092011;28;19916;-80
2022/07/13 00:35:42;;;;;;;;;;;11.50;75.60;;;;;;5093996;28;19908;-81
2022/07/13 00:38:09;;;;;;;;;;;11.50;75.50;;;;;;5093724;28;19963;-81
2022/07/13 00:40:36;;;;;;;;;;;11.50;75.50;;;;;;5093687;28;20329;-80
2022/07/13 00:43:02;;;;;;;;;;;11.50;74.90;;;;;;5093089;28;20259;-80
2022/07/13 00:45:29;;;;;;;;;;;11.60;75.80;;;;;;5093145;28;19965;-80
2022/07/13 00:47:55;;;;;;;;;;;11.70;75.80;;;;;;5092237;28;19962;-80
2022/07/13 00:50:22;;;;;;;;;;;11.70;75.90;;;;;;5093320;28;20262;-80
2022/07/13 00:52:48;;;;;;;;;;;11.70;74.50;;;;;;5093384;28;20312;-80
2022/07/13 00:55:15;;;;;;;;;;;11.80;74.70;;;;;;5092119;28;19950;-81
2022/07/13 00:57:42;;;;;;;;;;;11.80;74.80;;;;;;5092119;28;19916;-81
2022/07/13 01:00:10;;;;;;;;;;;11.80;74.60;;;;;;5093290;28;19929;-81
2022/07/13 01:02:39;;;;;;;;;;;11.80;74.60;;;;;;5093240;28;19908;-81
2022/07/13 01:05:06;;;;;;;;;;;11.90;74.70;;;;;;5093009;28;19927;-81
2022/07/13 01:07:33;;;;;;;;;;;11.90;74.60;;;;;;5093090;28;19961;-81
2022/07/13 01:10:00;;;;;;;;;;;12.00;74.60;;;;;;5091127;28;19935;-81
2022/07/13 01:12:33;;;;;;;;;;;11.90;75.10;;;;;;5093051;28;19908;-81
2022/07/13 01:15:00;;;;;;;;;;;12.00;74.80;;;;;;5093014;28;19908;-81
2022/07/13 01:17:26;;;;;;;;;;;12.00;75.60;;;;;;5093067;28;19920;-81
2022/07/13 01:19:53;;;;;;;;;;;12.10;75.40;;;;;;5091567;28;19955;-81
2022/07/13 01:22:24;;;;;;;;;;;12.20;76.00;;;;;;5092873;28;19908;-81
2022/07/13 01:24:52;;;;;;;;;;;12.20;75.60;;;;;;5064794;28;19912;-81
2022/07/13 01:27:18;;;;;;;;;;;12.20;75.70;;;;;;5092766;28;20278;-81
2022/07/13 01:29:45;;;;;;;;;;;12.20;75.90;;;;;;5091391;28;19995;-81
2022/07/13 01:32:11;;;;;;;;;;;12.20;74.80;;;;;;5091670;28;19909;-81
2022/07/13 01:34:38;;;;;;;;;;;12.30;74.10;;;;;;5092810;28;19908;-82
2022/07/13 01:37:04;;;;;;;;;;;12.40;73.30;;;;;;5092237;28;19919;-81
2022/07/13 01:39:31;;;;;;;;;;;12.40;74.40;;;;;;5092245;28;19908;-80
2022/07/13 01:41:58;;;;;;;;;;;12.50;73.30;;;;;;5092709;28;20355;-79
2022/07/13 01:44:24;;;;;;;;;;;12.50;73.60;;;;;;5092623;28;20282;-81
2022/07/13 01:46:51;;;;;;;;;;;12.50;73.80;;;;;;5092066;28;20389;-80
2022/07/13 01:49:17;;;;;;;;;;;12.50;74.50;;;;;;5092487;28;20082;-80
2022/07/13 01:51:44;;;;;;;;;;;12.60;73.70;;;;;;5092283;28;19912;-80
2022/07/13 01:54:10;;;;;;;;;;;12.60;73.30;;;;;;5092233;28;19908;-80
2022/07/13 01:56:37;;;;;;;;;;;12.50;72.30;;;;;;5092360;28;19912;-82
2022/07/13 01:59:03;;;;;;;;;;;12.60;72.80;;;;;;5092254;28;19908;-81
2022/07/13 02:01:30;;;;;;;;;;;12.60;73.60;;;;;;5092381;28;19915;-81
2022/07/13 02:03:56;;;;;;;;;;;12.60;73.40;;;;;;5092256;28;19953;-81
2022/07/13 02:06:23;;;;;;;;;;;12.60;74.00;;;;;;5092259;28;19955;-81
2022/07/13 02:08:49;;;;;;;;;;;12.70;74.40;;;;;;5092094;28;19908;-81
2022/07/13 02:11:19;;;;;;;;;;;12.60;74.40;;;;;;5092253;28;19920;-81
2022/07/13 02:13:45;;;;;;;;;;;12.70;71.50;;;;;;5092377;28;19918;-80
2022/07/13 02:16:13;;;;;;;;;;;12.70;72.40;;;;;;5091936;28;19962;-81
2022/07/13 02:18:39;;;;;;;;;;;12.80;71.00;;;;;;5091971;28;20010;-80
2022/07/13 02:21:06;;;;;;;;;;;12.90;70.00;;;;;;5091204;28;19952;-81
2022/07/13 02:23:32;;;;;;;;;;;12.90;71.20;;;;;;5096559;28;20312;-80
2022/07/13 02:25:59;;;;;;;;;;;12.90;71.60;;;;;;5094592;28;20007;-81
2022/07/13 02:28:26;;;;;;;;;;;12.90;71.50;;;;;;5096158;28;19961;-81
2022/07/13 02:30:52;;;;;;;;;;;12.90;71.50;;;;;;5096156;28;20007;-81
2022/07/13 02:33:19;;;;;;;;;;;12.90;71.90;;;;;;5096469;28;19908;-81
2022/07/13 02:35:45;;;;;;;;;;;13.00;70.80;;;;;;5094839;28;20373;-81
2022/07/13 02:38:12;;;;;;;;;;;13.00;72.20;;;;;;5096027;28;20346;-81
2022/07/13 02:40:38;;;;;;;;;;;13.00;73.40;;;;;;5095893;28;19934;-80
2022/07/13 02:43:05;;;;;;;;;;;13.00;72.90;;;;;;5095970;28;20005;-81
2022/07/13 02:45:31;;;;;;;;;;;13.10;70.80;;;;;;5096021;28;19916;-81
2022/07/13 02:47:58;;;;;;;;;;;13.00;69.80;;;;;;5095607;28;19915;-81
2022/07/13 02:50:25;;;;;;;;;;;13.00;71.10;;;;;;5095761;28;19908;-81
2022/07/13 02:52:52;;;;;;;;;;;13.10;70.40;;;;;;5094426;28;20602;-81
2022/07/13 02:55:18;;;;;;;;;;;13.20;68.40;;;;;;5095301;28;19940;-81
2022/07/13 02:57:46;;;;;;;;;;;13.20;70.80;;;;;;5094682;28;20301;-82
2022/07/13 03:00:12;;;;;;;;;;;13.30;70.10;;;;;;5095276;28;19951;-82
2022/07/13 03:02:39;;;;;;;;;;;13.20;68.70;;;;;;5094315;28;19915;-82
2022/07/13 03:05:05;;;;;;;;;;;13.30;68.50;;;;;;5095724;28;20018;-82
2022/07/13 03:07:33;;;;;;;;;;;13.30;68.50;;;;;;5094445;28;19915;-82
2022/07/13 03:09:59;;;;;;;;;;;13.40;68.50;;;;;;5095263;28;19915;-82
2022/07/13 03:12:26;;;;;;;;;;;13.30;69.10;;;;;;5095519;28;19908;-80
2022/07/13 03:14:52;;;;;;;;;;;13.30;68.30;;;;;;5095560;28;19908;-81
2022/07/13 03:17:19;;;;;;;;;;;13.30;67.90;;;;;;5094012;28;19908;-82
2022/07/13 03:19:45;;;;;;;;;;;13.30;68.10;;;;;;5095314;28;19954;-80
2022/07/13 03:22:12;;;;;;;;;;;13.30;68.10;;;;;;5093745;28;19968;-81
2022/07/13 03:24:39;;;;;;;;;;;13.30;68.30;;;;;;5094989;28;19908;-81
2022/07/13 03:27:05;;;;;;;;;;;13.20;69.20;;;;;;5095150;28;19969;-80
2022/07/13 03:29:32;;;;;;;;;;;13.20;66.40;;;;;;5094944;28;19908;-80
2022/07/13 03:31:58;;;;;;;;;;;13.30;64.00;;;;;;5094287;28;19912;-80
2022/07/13 03:34:25;;;;;;;;;;;13.30;64.80;;;;;;5093534;28;20322;-79
2022/07/13 03:36:52;;;;;;;;;;;13.40;63.70;;;;;;5094696;28;19920;-80
2022/07/13 03:39:18;;;;;;;;;;;13.40;64.80;;;;;;5076775;28;19936;-80
2022/07/13 03:41:45;;;;;;;;;;;13.50;66.10;;;;;;5093591;28;19931;-80
2022/07/13 03:44:12;;;;;;;;;;;13.40;66.30;;;;;;5094659;28;20281;-80
2022/07/13 03:46:40;;;;;;;;;;;13.30;67.70;;;;;;5094709;28;20001;-81
2022/07/13 03:49:06;;;;;;;;;;;13.30;68.70;;;;;;5093591;28;19908;-81
2022/07/13 03:51:33;;;;;;;;;;;13.30;68.40;;;;;;5094838;28;19908;-81
2022/07/13 03:54:00;;;;;;;;;;;13.20;68.50;;;;;;5094455;28;19915;-81
2022/07/13 03:56:26;;;;;;;;;;;13.20;68.30;;;;;;5094612;28;19967;-81
2022/07/13 03:58:53;;;;;;;;;;;13.30;67.40;;;;;;5094573;28;19915;-81
2022/07/13 04:01:19;;;;;;;;;;;13.20;67.70;;;;;;5093024;28;19908;-81
2022/07/13 04:03:46;;;;;;;;;;;13.30;67.30;;;;;;5094180;28;19948;-81
2022/07/13 04:06:13;;;;;;;;;;;13.20;67.00;;;;;;5094440;28;19916;-81
2022/07/13 04:08:39;;;;;;;;;;;13.20;67.50;;;;;;5094663;28;20030;-82
2022/07/13 04:11:06;;;;;;;;;;;13.20;68.50;;;;;;5094207;28;19999;-81
2022/07/13 04:13:32;;;;;;;;;;;13.20;67.90;;;;;;5094199;28;20362;-82
2022/07/13 04:15:59;;;;;;;;;;;13.20;66.60;;;;;;5094167;28;19908;-81
2022/07/13 04:18:26;;;;;;;;;;;13.20;67.10;;;;;;5094033;28;20292;-82
2022/07/13 04:20:52;;;;;;;;;;;13.20;67.20;;;;;;5093776;28;19908;-82
2022/07/13 04:23:19;;;;;;;;;;;13.10;67.50;;;;;;5093913;28;19956;-82
2022/07/13 04:25:45;;;;;;;;;;;13.10;68.40;;;;;;5093782;28;19970;-81
2022/07/13 04:28:12;;;;;;;;;;;13.00;68.60;;;;;;5093974;28;20309;-82
2022/07/13 04:30:38;;;;;;;;;;;13.10;68.40;;;;;;5093840;28;19908;-81
2022/07/13 04:33:05;;;;;;;;;;;13.10;68.40;;;;;;5093591;28;19908;-82
2022/07/13 04:35:32;;;;;;;;;;;13.20;66.70;;;;;;5093793;28;19908;-81
2022/07/13 04:37:58;;;;;;;;;;;13.30;65.40;;;;;;5093410;28;19920;-82
2022/07/13 04:40:26;;;;;;;;;;;13.30;67.50;;;;;;5093357;28;19962;-81
2022/07/13 04:42:52;;;;;;;;;;;13.30;67.50;;;;;;5093451;28;19908;-81
2022/07/13 04:45:19;;;;;;;;;;;13.30;67.80;;;;;;5092613;28;19916;-81
2022/07/13 04:47:45;;;;;;;;;;;13.30;68.70;;;;;;5093633;28;19919;-81
2022/07/13 04:50:12;;;;;;;;;;;13.30;68.60;;;;;;5093037;28;19915;-81
2022/07/13 04:52:39;;;;;;;;;;;13.30;68.30;;;;;;5093795;28;20053;-82
2022/07/13 04:55:06;;;;;;;;;;;13.30;67.80;;;;;;5092127;28;19908;-81
2022/07/13 04:57:33;;;;;;;;;;;13.30;69.20;;;;;;5093307;28;20207;-81
2022/07/13 05:00:00;;;;;;;;;;;13.20;68.00;;;;;;5092884;28;19908;-81
2022/07/13 05:02:28;;;;;;;;;;;13.20;67.80;;;;;;5092846;28;20277;-81
2022/07/13 05:04:54;;;;;;;;;;;13.20;68.30;;;;;;5091860;28;19949;-81
2022/07/13 05:07:21;;;;;;;;;;;13.20;68.70;;;;;;5092921;28;19908;-80
2022/07/13 05:09:47;;;;;;;;;;;13.10;69.20;;;;;;5093038;28;19908;-81
2022/07/13 05:12:14;;;;;;;;;;;13.00;68.50;;;;;;5093169;28;19908;-80
2022/07/13 05:14:40;;;;;;;;;;;13.00;69.40;;;;;;5093284;28;19915;-81
2022/07/13 05:17:07;;;;;;;;;;;13.00;68.90;;;;;;5092978;28;19912;-81
2022/07/13 05:19:33;;;;;;;;;;;13.00;69.30;;;;;;5092887;28;19954;-81
2022/07/13 05:22:00;;;;;;;;;;;13.00;69.20;;;;;;5091667;28;19916;-81
2022/07/13 05:24:26;;;;;;;;;;;13.00;69.20;;;;;;5092515;28;19935;-80
2022/07/13 05:26:53;;;;;;;;;;;13.00;68.60;;;;;;5092624;28;19917;-81
2022/07/13 05:29:19;;;;;;;;;;;13.00;68.10;;;;;;5092494;28;19908;-81
2022/07/13 05:31:46;;;;;;;;;;;13.10;66.90;;;;;;5092434;28;19919;-80
2022/07/13 05:34:13;;;;;;;;;;;13.20;68.00;;;;;;5092747;28;19912;-81
2022/07/13 05:36:39;;;;;;;;;;;13.20;67.90;;;;;;5092345;28;19917;-79
2022/07/13 05:39:06;;;;;;;;;;;13.20;67.50;;;;;;5092686;28;20335;-81
2022/07/13 05:41:32;;;;;;;;;;;13.20;67.00;;;;;;5092669;28;19913;-81
2022/07/13 05:43:59;;;;;;;;;;;13.20;67.80;;;;;;5091795;28;19971;-81
2022/07/13 05:46:26;;;;;;;;;;;13.20;67.80;;;;;;5082308;28;19968;-72
2022/07/13 05:48:53;;;;;;;;;;;13.20;67.70;;;;;;5089929;28;19939;-72
2022/07/13 05:51:19;;;;;;;;;;;13.10;67.40;;;;;;5089530;28;20006;-73
2022/07/13 05:53:46;;;;;;;;;;;13.10;66.40;;;;;;5087679;28;19908;-73
2022/07/13 05:56:14;;;;;;;;;;;13.10;67.30;;;;;;5089415;28;19916;-73
2022/07/13 05:58:40;;;;;;;;;;;13.00;67.50;;;;;;5089369;28;19952;-73
2022/07/13 06:01:07;;;;;;;;;;;13.00;67.10;;;;;;5090004;28;20378;-73
2022/07/13 06:03:33;;;;;;;;;;;13.00;67.50;;;;;;5089393;28;19958;-74
2022/07/13 06:06:00;;;;;;;;;;;13.00;68.20;;;;;;5080321;28;19924;-72
2022/07/13 06:08:31;;;;;;;;;;;12.90;69.60;;;;;;5088265;28;20447;-71
2022/07/13 06:10:57;;;;;;;;;;;12.80;69.90;;;;;;5089108;28;19948;-71
2022/07/13 06:13:24;;;;;;;;;;;12.80;69.90;;;;;;5089614;28;19965;-72
2022/07/13 06:15:50;;;;;;;;;;;12.70;70.40;;;;;;5088998;28;19938;-72
2022/07/13 06:18:17;;;;;;;;;;;12.70;70.30;;;;;;5089551;28;19912;-72
2022/07/13 06:20:44;;;;;;;;;;;12.70;71.60;;;;;;5089065;28;19919;-69
2022/07/13 06:23:10;;;;;;;;;;;12.60;71.70;;;;;;5089036;28;19951;-72
2022/07/13 06:25:37;;;;;;;;;;;12.60;72.30;;;;;;5089421;28;20361;-72
2022/07/13 06:28:04;;;;;;;;;;;12.50;72.70;;;;;;5088986;28;20439;-72
2022/07/13 06:30:31;;;;;;;;;;;12.50;72.10;;;;;;5089565;28;19916;-73
2022/07/13 06:32:58;;;;;;;;;;;12.60;72.10;;;;;;5088544;28;19920;-72
2022/07/13 06:35:24;;;;;;;;;;;12.50;73.40;;;;;;5088910;28;19919;-73
2022/07/13 06:37:51;;;;;;;;;;;12.40;72.60;;;;;;5088929;28;19970;-73
2022/07/13 06:40:18;;;;;;;;;;;12.40;72.30;;;;;;5088835;28;19912;-73
2022/07/13 06:42:45;;;;;;;;;;;12.40;72.50;;;;;;5089082;28;19919;-73
2022/07/13 06:45:11;;;;;;;;;;;12.50;71.70;;;;;;5077495;28;19931;-72
2022/07/13 06:47:39;;;;;;;;;;;12.50;72.10;;;;;;5088827;28;19913;-72
2022/07/13 06:50:09;;;;;;;;;;;12.40;72.10;;;;;;5088590;28;19935;-71
2022/07/13 06:52:37;;;;;;;;;;;12.40;72.20;;;;;;5088752;28;19908;-71
2022/07/13 06:55:04;;;;;;;;;;;12.40;71.90;;;;;;5086812;28;19908;-71
2022/07/13 06:57:31;;;;;;;;;;;12.50;71.40;;;;;;5088921;28;19955;-72
2022/07/13 06:59:57;;;;;;;;;;;12.40;70.50;;;;;;5088837;28;20362;-72
2022/07/13 07:02:24;;;;;;;;;;;12.50;70.60;;;;;;5088253;28;19995;-72
2022/07/13 07:04:51;;;;;;;;;;;12.40;70.90;;;;;;5088000;28;19916;-72
2022/07/13 07:07:17;;;;;;;;;;;12.50;70.30;;;;;;5089071;28;19965;-72
2022/07/13 07:09:44;;;;;;;;;;;12.50;70.50;;;;;;5091625;28;19915;-72
2022/07/13 07:12:11;;;;;;;;;;;12.40;70.90;;;;;;5092367;28;19920;-72
2022/07/13 07:14:37;;;;;;;;;;;12.40;70.80;;;;;;5091340;28;19992;-72
2022/07/13 07:17:04;;;;;;;;;;;12.40;70.50;;;;;;5092710;28;19912;-73
2022/07/13 07:19:30;;;;;;;;;;;12.40;71.20;;;;;;5092736;28;19916;-72
2022/07/13 07:21:57;;;;;;;;;;;12.40;71.30;;;;;;5091962;28;19919;-72
2022/07/13 07:24:23;;;;;;;;;;;12.40;70.90;;;;;;5092596;28;19970;-71
2022/07/13 07:26:51;;;;;;;;;;;12.40;70.40;;;;;;5091864;28;19931;-71
2022/07/13 07:29:17;;;;;;;;;;;12.40;70.50;;;;;;5089190;28;19916;-71
2022/07/13 07:31:44;;;;;;;;;;;12.40;70.00;;;;;;5089782;28;19967;-71
2022/07/13 07:34:10;;;;;;;;;;;12.40;70.60;;;;;;5090977;28;19927;-71
2022/07/13 07:36:37;;;;;;;;;;;12.40;71.10;;;;;;5090489;28;20003;-71
2022/07/13 07:39:04;;;;;;;;;;;12.30;71.40;;;;;;5090863;28;19927;-72
2022/07/13 07:41:30;;;;;;;;;;;12.40;70.60;;;;;;5088372;28;20021;-72
2022/07/13 07:43:57;;;;;;;;;;;12.30;70.60;;;;;;5073408;28;19912;-72
2022/07/13 07:46:23;;;;;;;;;;;12.30;70.70;;;;;;5090505;28;20333;-71
2022/07/13 07:48:50;;;;;;;;;;;12.30;71.50;;;;;;5089691;28;20286;-72
2022/07/13 07:51:16;;;;;;;;;;;12.40;71.60;;;;;;5089350;28;19935;-73
2022/07/13 07:53:43;;;;;;;;;;;12.30;71.40;;;;;;5088935;28;19918;-74
2022/07/13 07:56:10;;;;;;;;;;;12.30;70.90;;;;;;5090621;28;20069;-73
2022/07/13 07:58:36;;;;;;;;;;;12.30;70.50;;;;;;5090471;28;19920;-72
2022/07/13 08:01:03;;;;;;;;;;;12.30;71.20;;;;;;5091092;28;20025;-72
2022/07/13 08:03:29;;;;;;;;;;;12.30;71.50;;;;;;5091551;28;19958;-72
2022/07/13 08:05:57;;;;;;;;;;;12.30;71.60;;;;;;5090922;28;20023;-73
2022/07/13 08:08:24;;;;;;;;;;;12.30;71.40;;;;;;5091182;28;19920;-72
2022/07/13 08:10:50;;;;;;;;;;;12.30;71.60;;;;;;5090887;28;19912;-72
2022/07/13 08:13:17;;;;;;;;;;;12.20;71.80;;;;;;5091830;28;19912;-71
2022/07/13 08:15:43;;;;;;;;;;;12.30;72.80;;;;;;5091200;28;19924;-73
2022/07/13 08:18:10;;;;;;;;;;;12.20;73.40;;;;;;5084756;28;19931;-72
2022/07/13 08:20:36;;;;;;;;;;;12.20;74.30;;;;;;5088011;28;19915;-72
2022/07/13 08:23:50;;;;;;;;;;;12.20;74.80;;;;;;5090195;28;19923;-71
2022/07/13 08:25:49;;;;;;;;;;;12.20;76.10;;;;;;5090070;28;19923;-72
2022/07/13 08:28:16;;;;;;;;;;;12.10;76.90;;;;;;5090366;28;19916;-72
2022/07/13 08:30:42;;;;;;;;;;;12.00;78.40;;;;;;5089784;28;20321;-72
2022/07/13 08:33:09;;;;;;;;;;;11.90;77.80;;;;;;5089038;28;20351;-72
2022/07/13 08:38:35;;;;;;;;;;;11.80;79.30;;;;;;5088589;28;19931;-72
2022/07/13 08:41:02;;;;;;;;;;;11.80;78.60;;;;;;5089746;28;20016;-72
2022/07/13 08:43:28;;;;;;;;;;;11.70;79.40;;;;;;5070214;28;19916;-72
2022/07/13 08:45:55;;;;;;;;;;;11.70;77.90;;;;;;5087413;28;20126;-72
2022/07/13 08:48:25;;;;;;;;;;;11.70;78.80;;;;;;5087674;28;19930;-72
2022/07/13 08:50:52;;;;;;;;;;;11.80;79.70;;;;;;5084774;28;20247;-72
2022/07/13 08:53:19;;;;;;;;;;;11.80;78.00;;;;;;5085194;28;20408;-73
2022/07/13 08:55:45;;;;;;;;;;;11.80;78.00;;;;;;5087508;28;19920;-72
2022/07/13 08:58:12;;;;;;;;;;;11.80;77.80;;;;;;5071241;28;20460;-70
2022/07/13 09:00:40;;;;;;;;;;;11.90;75.70;;;;;;5068842;28;20427;-73
2022/07/13 09:03:07;;;;;;;;;;;12.00;76.90;;;;;;5068552;28;19927;-71
2022/07/13 09:05:34;;;;;;;;;;;12.00;76.20;;;;;;5088013;28;19964;-73
2022/07/13 09:08:01;;;;;;;;;;;12.00;76.80;;;;;;5072925;28;20402;-73
2022/07/13 09:10:28;;;;;;;;;;;12.00;76.30;;;;;;5089243;28;19916;-74
2022/07/13 09:12:54;;;;;;;;;;;12.00;77.50;;;;;;5074180;28;20351;-74
2022/07/13 09:15:21;;;;;;;;;;;11.90;78.30;;;;;;5071361;28;20377;-75
2022/07/13 09:17:48;;;;;;;;;;;11.80;79.40;;;;;;5089801;28;19916;-73
2022/07/13 09:20:14;;;;;;;;;;;11.80;79.80;;;;;;5087227;28;19916;-76
2022/07/13 09:22:56;;;;;;;;;;;11.80;80.20;;;;;;5089803;28;19916;-78
2022/07/13 09:25:26;;;;;;;;;;;11.70;79.50;;;;;;5084434;28;19922;-78
2022/07/13 09:27:53;;;;;;;;;;;11.70;80.70;;;;;;5086850;28;19925;-75
2022/07/13 09:30:20;;;;;;;;;;;11.70;81.70;;;;;;5085655;28;19934;-72
2022/07/13 12:14:34;;;;;;;;;;;10.60;90.70;;;;;;5129226;27;20051;-72
2022/07/13 12:17:00;;;;;;;;;;;10.50;90.00;;;;;;5131253;27;20002;-70
2022/07/13 12:19:27;;;;;;;;;;;10.60;89.60;;;;;;5107630;27;20353;-72
2022/07/13 12:21:57;;;;;;;;;;;10.60;89.10;;;;;;5107784;27;19954;-73
2022/07/13 12:24:24;;;;;;;;;;;10.60;89.20;;;;;;5128122;27;19945;-72
2022/07/13 12:26:53;;;;;;;;;;;10.60;88.80;;;;;;5129902;27;19988;-70
2022/07/13 12:29:30;;;;;;;;;;;10.70;88.20;;;;;;5130009;27;20013;-70
2022/07/13 12:31:57;;;;;;;;;;;10.60;88.10;;;;;;5128389;27;19915;-70
2022/07/13 12:34:23;;;;;;;;;;;10.60;87.60;;;;;;5118493;27;19912;-70
2022/07/13 12:36:50;;;;;;;;;;;10.60;87.50;;;;;;5128809;27;19959;-74
2022/07/13 12:39:20;;;;;;;;;;;10.60;87.60;;;;;;5124093;27;20010;-73
2022/07/13 12:41:56;;;;;;;;;;;10.60;87.50;;;;;;5120150;27;20006;-73
2022/07/13 12:44:28;;;;;;;;;;;10.60;87.00;;;;;;5124752;27;20391;-75
2022/07/13 12:46:55;;;;;;;;;;;10.60;86.90;;;;;;5128972;27;19924;-76
2022/07/13 12:49:37;;;;;;;;;;;10.60;86.50;;;;;;5113274;27;19961;-74
2022/07/13 12:52:05;;;;;;;;;;;10.60;85.80;;;;;;5131298;27;20331;-78
2022/07/13 12:54:47;;;;;;;;;;;10.60;85.40;;;;;;5127731;27;20247;-75
2022/07/13 12:57:15;;;;;;;;;;;10.60;86.00;;;;;;5117927;27;19922;-72
2022/07/13 12:59:56;;;;;;;;;;;10.60;85.60;;;;;;5128574;27;19916;-71
2022/07/13 13:02:23;;;;;;;;;;;10.60;86.00;;;;;;5114784;27;19915;-72
2022/07/13 13:04:49;;;;;;;;;;;10.60;84.80;;;;;;5129254;27;20290;-72
2022/07/13 13:07:17;;;;;;;;;;;10.60;85.00;;;;;;5128364;27;20000;-71
2022/07/13 13:09:43;;;;;;;;;;;10.60;85.20;;;;;;5129386;27;19934;-73
2022/07/13 13:12:10;;;;;;;;;;;10.60;84.60;;;;;;5130696;27;20360;-73
2022/07/13 13:14:37;;;;;;;;;;;10.60;84.80;;;;;;5129178;27;19942;-74
2022/07/13 13:17:03;;;;;;;;;;;10.60;84.00;;;;;;5129083;27;20491;-72
2022/07/13 13:19:30;;;;;;;;;;;10.60;83.80;;;;;;5130504;27;20319;-76
2022/07/13 13:21:57;;;;;;;;;;;10.70;84.30;;;;;;5129529;27;19916;-75
2022/07/13 13:24:23;;;;;;;;;;;10.70;84.50;;;;;;5125504;27;19919;-75
2022/07/13 13:26:50;;;;;;;;;;;10.60;83.80;;;;;;5125621;27;19923;-77
2022/07/13 13:32:01;;;;;;;;;;;10.60;83.20;;;;;;5130601;27;19913;-76
2022/07/13 13:34:27;;;;;;;;;;;10.50;84.00;;;;;;5128639;27;19916;-76
2022/07/13 13:36:54;;;;;;;;;;;10.60;83.90;;;;;;5130331;27;19916;-73
2022/07/13 13:39:20;;;;;;;;;;;10.50;82.80;;;;;;5128344;27;20576;-73
2022/07/13 13:41:47;;;;;;;;;;;10.50;83.40;;;;;;5128518;27;19915;-72
2022/07/13 13:44:14;;;;;;;;;;;10.50;84.00;;;;;;5111679;27;20026;-72
2022/07/13 13:46:41;;;;;;;;;;;10.50;83.70;;;;;;5119306;27;19962;-73
2022/07/13 13:49:08;;;;;;;;;;;10.50;83.80;;;;;;5130574;27;19915;-73
2022/07/13 13:51:34;;;;;;;;;;;10.40;84.10;;;;;;5132953;27;20292;-73
2022/07/13 13:54:01;;;;;;;;;;;10.40;85.20;;;;;;5131591;27;19908;-73
2022/07/13 13:56:27;;;;;;;;;;;10.40;84.70;;;;;;5129476;27;19965;-74
2022/07/13 13:58:54;;;;;;;;;;;10.30;84.40;;;;;;5131314;27;19911;-73
2022/07/13 14:01:21;;;;;;;;;;;10.30;85.40;;;;;;5129789;27;19919;-73
2022/07/13 14:03:47;;;;;;;;;;;10.30;86.10;;;;;;5130970;27;19945;-73
2022/07/13 14:06:14;;;;;;;;;;;10.20;86.00;;;;;;5127433;27;19919;-73
2022/07/13 14:08:44;;;;;;;;;;;10.20;86.90;;;;;;5132470;27;19914;-73
2022/07/13 14:11:11;;;;;;;;;;;10.20;87.00;;;;;;5133062;27;19952;-74
2022/07/13 14:13:38;;;;;;;;;;;10.20;86.30;;;;;;5129902;27;20384;-74
2022/07/13 14:16:05;;;;;;;;;;;10.10;86.90;;;;;;5130691;27;19911;-73
2022/07/13 14:18:32;;;;;;;;;;;10.10;87.00;;;;;;5131720;27;19919;-73
2022/07/13 14:20:58;;;;;;;;;;;10.10;87.20;;;;;;5132782;27;19907;-74
2022/07/13 14:23:25;;;;;;;;;;;10.10;87.60;;;;;;5132213;27;19964;-73
2022/07/13 14:25:52;;;;;;;;;;;10.10;87.10;;;;;;5126759;27;19916;-74
2022/07/13 14:28:18;;;;;;;;;;;10.10;87.10;;;;;;5130563;28;20411;-73
2022/07/13 14:30:45;;;;;;;;;;;10.10;86.80;;;;;;5132398;27;20285;-73
2022/07/13 14:33:14;;;;;;;;;;;10.10;87.10;;;;;;5131606;27;19990;-73
2022/07/13 14:35:41;;;;;;;;;;;10.10;86.20;;;;;;5132330;28;19911;-74
2022/07/13 14:38:10;;;;;;;;;;;10.10;86.10;;;;;;5131338;27;20007;-73
2022/07/13 14:40:38;;;;;;;;;;;10.10;86.80;;;;;;5132820;27;19908;-74
2022/07/13 14:43:05;;;;;;;;;;;10.10;87.00;;;;;;5132171;28;19907;-74
2022/07/13 14:45:32;;;;;;;;;;;10.10;87.70;;;;;;5118137;27;20495;-74
2022/07/13 14:47:58;;;;;;;;;;;10.10;88.20;;;;;;5128288;27;20015;-74
2022/07/13 14:50:25;;;;;;;;;;;10.00;88.10;;;;;;5131609;27;19964;-74
2022/07/13 14:52:52;;;;;;;;;;;10.00;88.50;;;;;;5130616;27;19911;-73
2022/07/13 14:55:18;;;;;;;;;;;10.00;89.30;;;;;;5127647;27;20281;-73
2022/07/13 14:57:45;;;;;;;;;;;9.90;89.50;;;;;;5123537;27;19908;-73
2022/07/13 15:00:12;;;;;;;;;;;9.90;89.20;;;;;;5131403;27;19954;-73
2022/07/13 15:02:39;;;;;;;;;;;9.90;89.10;;;;;;5110443;28;19961;-73
2022/07/13 15:05:11;;;;;;;;;;;9.90;88.20;;;;;;5117623;27;19912;-73
2022/07/13 15:07:39;;;;;;;;;;;9.90;89.00;;;;;;5130985;27;19963;-74
2022/07/13 15:10:06;;;;;;;;;;;9.90;89.70;;;;;;5131888;27;19950;-74
2022/07/13 15:12:33;;;;;;;;;;;9.90;89.50;;;;;;5129129;27;20287;-74
2022/07/13 15:15:00;;;;;;;;;;;10.00;89.50;;;;;;5125511;28;19919;-73
2022/07/13 15:17:27;;;;;;;;;;;10.00;89.90;;;;;;5126749;27;19908;-73
2022/07/13 15:19:54;;;;;;;;;;;10.00;89.50;;;;;;5131798;27;19907;-73
2022/07/13 15:22:21;;;;;;;;;;;10.00;89.50;;;;;;5132463;28;19911;-73
2022/07/13 15:24:48;;;;;;;;;;;10.00;89.20;;;;;;5129654;28;19919;-73
2022/07/13 15:27:14;;;;;;;;;;;10.00;89.00;;;;;;5130550;27;19927;-73
2022/07/13 15:29:41;;;;;;;;;;;10.00;88.40;;;;;;5123350;27;19984;-73
2022/07/13 15:32:07;;;;;;;;;;;10.10;88.90;;;;;;5133726;27;20328;-73
2022/07/13 15:34:34;;;;;;;;;;;10.10;88.30;;;;;;5133154;27;19911;-74
2022/07/13 15:37:00;;;;;;;;;;;10.10;88.30;;;;;;5134615;27;19912;-73
2022/07/13 15:39:27;;;;;;;;;;;10.10;88.40;;;;;;5129991;27;19911;-74
2022/07/13 15:41:53;;;;;;;;;;;10.10;89.10;;;;;;5134698;27;20048;-74
2022/07/13 15:44:20;;;;;;;;;;;10.10;88.30;;;;;;5132822;27;19934;-74
2022/07/13 15:46:48;;;;;;;;;;;10.10;88.80;;;;;;5128587;27;19920;-73
2022/07/13 15:49:14;;;;;;;;;;;10.00;88.70;;;;;;5116874;27;20274;-74
2022/07/13 15:51:41;;;;;;;;;;;10.00;89.30;;;;;;5135309;27;19941;-74
2022/07/13 15:54:08;;;;;;;;;;;9.90;90.30;;;;;;5134176;27;19908;-74
2022/07/13 15:56:36;;;;;;;;;;;9.90;90.90;;;;;;5134234;27;19926;-74
2022/07/13 15:59:02;;;;;;;;;;;9.80;91.00;;;;;;5135079;27;19960;-73
2022/07/13 16:01:29;;;;;;;;;;;9.70;91.10;;;;;;5132396;27;19919;-73
2022/07/13 16:03:56;;;;;;;;;;;9.70;91.30;;;;;;5132912;27;19915;-74
2022/07/13 16:06:22;;;;;;;;;;;9.70;91.50;;;;;;5124286;27;19923;-73
2022/07/13 16:08:51;;;;;;;;;;;9.70;92.00;;;;;;5135318;27;19907;-74
2022/07/13 16:11:18;;;;;;;;;;;9.70;92.40;;;;;;5134168;27;19915;-74
2022/07/13 16:13:45;;;;;;;;;;;9.70;92.40;;;;;;5134116;27;19919;-74
2022/07/13 16:16:13;;;;;;;;;;;9.70;92.50;;;;;;5133147;27;19912;-74
2022/07/13 16:18:41;;;;;;;;;;;9.70;92.60;;;;;;5134100;27;20297;-73
2022/07/13 16:21:08;;;;;;;;;;;9.70;92.80;;;;;;5134926;27;19907;-73
2022/07/13 16:23:35;;;;;;;;;;;9.70;92.80;;;;;;5128841;27;19972;-74
2022/07/13 16:26:02;;;;;;;;;;;9.70;93.00;;;;;;5125269;27;19966;-74
2022/07/13 16:28:28;;;;;;;;;;;9.70;93.00;;;;;;5132761;27;20412;-74
2022/07/13 16:30:55;;;;;;;;;;;9.70;93.20;;;;;;5132036;27;20191;-73
2022/07/13 16:33:22;;;;;;;;;;;9.70;93.30;;;;;;5132857;27;19979;-73
2022/07/13 16:35:48;;;;;;;;;;;9.70;93.50;;;;;;5134311;27;20311;-73
2022/07/13 16:38:15;;;;;;;;;;;9.60;93.40;;;;;;5114529;27;20328;-73
2022/07/13 16:40:42;;;;;;;;;;;9.60;93.20;;;;;;5129049;27;19994;-73
2022/07/13 16:43:08;;;;;;;;;;;9.50;93.00;;;;;;5133378;27;19942;-74
2022/07/13 16:45:35;;;;;;;;;;;9.50;93.00;;;;;;5132964;27;19920;-73
2022/07/13 16:48:04;;;;;;;;;;;9.40;92.80;;;;;;5134437;27;19914;-73
2022/07/13 16:50:31;;;;;;;;;;;9.40;92.90;;;;;;5133410;27;20302;-74
2022/07/13 16:52:58;;;;;;;;;;;9.40;92.90;;;;;;5134482;27;20380;-74
2022/07/13 16:55:24;;;;;;;;;;;9.30;93.10;;;;;;5130790;27;19998;-73
2022/07/13 16:57:51;;;;;;;;;;;9.30;92.80;;;;;;5133407;27;20428;-73
2022/07/13 17:00:19;;;;;;;;;;;9.20;93.00;;;;;;5133533;27;19908;-73
2022/07/13 17:02:46;;;;;;;;;;;9.20;93.00;;;;;;5132108;27;20277;-73
2022/07/13 17:05:12;;;;;;;;;;;9.20;92.80;;;;;;5131439;27;20285;-73